sensor_id;sensor_type;location;lat;lon;timestamp;pressure;altitude;pressure_sealevel;temperature;humidity
24302;BME280;12421;49.732;20.078;2022-12-07T00:02:00;96300.60;;;3.04;83.52
24302;BME280;12421;49.732;20.078;2022-12-07T00:12:05;96296.98;;;2.86;83.51
24302;BME280;12421;49.732;20.078;2022-12-07T00:22:08;96297.48;;;2.64;83.13
24302;BME280;12421;49.732;20.078;2022-12-07T00:32:12;96297.02;;;2.51;83.56
24302;BME280;12421;49.732;20.078;2022-12-07T00:42:16;96300.66;;;2.52;84.08
24302;BME280;12421;49.732;20.078;2022-12-07T00:52:20;96293.09;;;2.58;84.31
24302;BME280;12421;49.732;20.078;2022-12-07T01:02:24;96296.59;;;2.61;84.32
24302;BME280;12421;49.732;20.078;2022-12-07T01:12:28;96290.70;;;2.60;84.31
24302;BME280;12421;49.732;20.078;2022-12-07T01:22:39;96284.27;;;2.59;84.64
24302;BME280;12421;49.732;20.078;2022-12-07T01:32:43;96284.13;;;2.64;84.74
24302;BME280;12421;49.732;20.078;2022-12-07T01:42:47;96276.54;;;2.67;84.67
24302;BME280;12421;49.732;20.078;2022-12-07T01:52:51;96275.14;;;2.66;84.97
24302;BME280;12421;49.732;20.078;2022-12-07T02:03:09;96269.66;;;2.71;85.11
24302;BME280;12421;49.732;20.078;2022-12-07T02:13:19;96267.48;;;2.82;84.93
24302;BME280;12421;49.732;20.078;2022-12-07T02:33:51;96253.30;;;2.86;84.73
24302;BME280;12421;49.732;20.078;2022-12-07T02:44:02;96253.88;;;2.94;84.51
24302;BME280;12421;49.732;20.078;2022-12-07T02:54:16;96258.75;;;2.96;84.34
24302;BME280;12421;49.732;20.078;2022-12-07T03:14:42;96253.11;;;2.82;84.44
24302;BME280;12421;49.732;20.078;2022-12-07T03:24:52;96250.41;;;2.93;84.75
24302;BME280;12421;49.732;20.078;2022-12-07T03:45:09;96230.53;;;3.00;84.12
24302;BME280;12421;49.732;20.078;2022-12-07T03:55:28;96232.05;;;2.96;84.33
24302;BME280;12421;49.732;20.078;2022-12-07T04:05:33;96226.92;;;3.05;84.47
24302;BME280;12421;49.732;20.078;2022-12-07T04:15:36;96217.79;;;3.14;84.24
24302;BME280;12421;49.732;20.078;2022-12-07T04:25:40;96209.80;;;3.10;83.88
24302;BME280;12421;49.732;20.078;2022-12-07T04:35:44;96209.73;;;3.02;84.13
24302;BME280;12421;49.732;20.078;2022-12-07T04:45:48;96209.92;;;3.05;84.39
24302;BME280;12421;49.732;20.078;2022-12-07T04:55:52;96203.35;;;3.06;84.28
24302;BME280;12421;49.732;20.078;2022-12-07T05:05:56;96199.15;;;3.01;84.25
24302;BME280;12421;49.732;20.078;2022-12-07T05:15:59;96194.48;;;3.01;84.54
24302;BME280;12421;49.732;20.078;2022-12-07T05:26:04;96198.96;;;3.00;84.53
24302;BME280;12421;49.732;20.078;2022-12-07T05:36:08;96198.67;;;3.08;84.78
24302;BME280;12421;49.732;20.078;2022-12-07T05:46:12;96198.02;;;3.11;84.59
24302;BME280;12421;49.732;20.078;2022-12-07T05:56:16;96204.05;;;3.09;84.56
24302;BME280;12421;49.732;20.078;2022-12-07T06:06:20;96213.91;;;3.04;84.54
24302;BME280;12421;49.732;20.078;2022-12-07T06:16:24;96216.17;;;3.05;84.70
24302;BME280;12421;49.732;20.078;2022-12-07T06:26:28;96220.63;;;2.99;84.66
24302;BME280;12421;49.732;20.078;2022-12-07T06:36:32;96226.67;;;2.94;84.86
24302;BME280;12421;49.732;20.078;2022-12-07T06:46:37;96231.48;;;2.88;85.25
24302;BME280;12421;49.732;20.078;2022-12-07T06:56:41;96229.67;;;3.03;85.57
24302;BME280;12421;49.732;20.078;2022-12-07T07:06:45;96232.84;;;3.10;85.04
24302;BME280;12421;49.732;20.078;2022-12-07T07:16:50;96240.11;;;3.06;85.06
24302;BME280;12421;49.732;20.078;2022-12-07T07:26:54;96244.83;;;3.12;85.36
24302;BME280;12421;49.732;20.078;2022-12-07T07:36:58;96245.05;;;3.19;85.29
24302;BME280;12421;49.732;20.078;2022-12-07T07:47:03;96241.83;;;3.29;85.38
24302;BME280;12421;49.732;20.078;2022-12-07T07:57:08;96244.63;;;3.34;84.97
24302;BME280;12421;49.732;20.078;2022-12-07T08:07:13;96254.17;;;3.38;85.32
24302;BME280;12421;49.732;20.078;2022-12-07T08:17:17;96260.69;;;3.53;85.51
24302;BME280;12421;49.732;20.078;2022-12-07T08:27:20;96267.38;;;3.69;85.11
24302;BME280;12421;49.732;20.078;2022-12-07T08:37:27;96269.13;;;3.73;84.47
24302;BME280;12421;49.732;20.078;2022-12-07T08:47:32;96284.57;;;3.72;84.32
24302;BME280;12421;49.732;20.078;2022-12-07T08:57:37;96285.28;;;3.77;84.06
24302;BME280;12421;49.732;20.078;2022-12-07T09:07:44;96288.09;;;3.84;84.01
24302;BME280;12421;49.732;20.078;2022-12-07T09:17:49;96287.75;;;3.83;84.04
24302;BME280;12421;49.732;20.078;2022-12-07T09:27:57;96284.10;;;3.84;84.25
24302;BME280;12421;49.732;20.078;2022-12-07T09:38:01;96275.63;;;3.90;84.15
24302;BME280;12421;49.732;20.078;2022-12-07T09:48:16;96277.92;;;3.99;83.96
24302;BME280;12421;49.732;20.078;2022-12-07T09:58:24;96280.39;;;4.09;83.78
24302;BME280;12421;49.732;20.078;2022-12-07T10:08:33;96280.76;;;4.16;83.65
24302;BME280;12421;49.732;20.078;2022-12-07T10:18:41;96275.38;;;4.19;83.04
24302;BME280;12421;49.732;20.078;2022-12-07T10:28:45;96269.81;;;4.17;82.60
24302;BME280;12421;49.732;20.078;2022-12-07T10:39:03;96260.79;;;4.20;82.74
24302;BME280;12421;49.732;20.078;2022-12-07T11:00:09;96251.45;;;4.35;81.97
24302;BME280;12421;49.732;20.078;2022-12-07T11:10:19;96236.17;;;4.44;81.94
24302;BME280;12421;49.732;20.078;2022-12-07T11:20:43;96224.35;;;4.37;80.91
24302;BME280;12421;49.732;20.078;2022-12-07T11:41:16;96212.86;;;4.35;80.66
24302;BME280;12421;49.732;20.078;2022-12-07T11:51:25;96214.09;;;4.30;80.76
24302;BME280;12421;49.732;20.078;2022-12-07T12:01:43;96213.21;;;4.21;81.21
24302;BME280;12421;49.732;20.078;2022-12-07T12:23:14;96204.71;;;4.41;81.40
24302;BME280;12421;49.732;20.078;2022-12-07T12:33:31;96194.83;;;4.55;81.12
24302;BME280;12421;49.732;20.078;2022-12-07T12:43:50;96186.66;;;4.59;80.72
24302;BME280;12421;49.732;20.078;2022-12-07T12:54:12;96190.48;;;4.66;80.48
24302;BME280;12421;49.732;20.078;2022-12-07T13:04:34;96186.32;;;4.60;79.98
24302;BME280;12421;49.732;20.078;2022-12-07T13:14:56;96194.13;;;4.52;80.21
24302;BME280;12421;49.732;20.078;2022-12-07T13:35:36;96195.32;;;4.22;79.99
24302;BME280;12421;49.732;20.078;2022-12-07T13:45:41;96199.80;;;4.09;79.90
24302;BME280;12421;49.732;20.078;2022-12-07T13:55:52;96207.44;;;4.04;80.17
24302;BME280;12421;49.732;20.078;2022-12-07T14:06:15;96210.02;;;4.04;79.62
24302;BME280;12421;49.732;20.078;2022-12-07T14:16:35;96213.28;;;3.87;78.50
24302;BME280;12421;49.732;20.078;2022-12-07T14:26:39;96215.05;;;3.54;78.21
24302;BME280;12421;49.732;20.078;2022-12-07T14:36:44;96225.24;;;3.14;78.39
24302;BME280;12421;49.732;20.078;2022-12-07T14:46:48;96229.11;;;2.74;79.21
24302;BME280;12421;49.732;20.078;2022-12-07T14:57:13;96236.32;;;2.45;79.62
24302;BME280;12421;49.732;20.078;2022-12-07T15:07:20;96256.63;;;2.14;79.94
24302;BME280;12421;49.732;20.078;2022-12-07T15:17:25;96261.77;;;1.97;80.75
24302;BME280;12421;49.732;20.078;2022-12-07T15:27:34;96264.05;;;1.96;81.20
24302;BME280;12421;49.732;20.078;2022-12-07T15:37:38;96256.71;;;2.07;81.80
24302;BME280;12421;49.732;20.078;2022-12-07T15:47:43;96241.65;;;2.05;81.42
24302;BME280;12421;49.732;20.078;2022-12-07T15:58:10;96256.52;;;2.05;81.73
24302;BME280;12421;49.732;20.078;2022-12-07T16:08:14;96258.77;;;2.05;82.03
24302;BME280;12421;49.732;20.078;2022-12-07T16:18:19;96267.86;;;2.14;81.85
24302;BME280;12421;49.732;20.078;2022-12-07T16:28:22;96275.21;;;2.20;81.75
24302;BME280;12421;49.732;20.078;2022-12-07T16:38:27;96281.86;;;2.27;81.52
24302;BME280;12421;49.732;20.078;2022-12-07T16:48:31;96284.70;;;2.34;81.31
24302;BME280;12421;49.732;20.078;2022-12-07T16:58:35;96280.52;;;2.47;80.75
24302;BME280;12421;49.732;20.078;2022-12-07T17:08:40;96280.76;;;2.54;80.38
24302;BME280;12421;49.732;20.078;2022-12-07T17:18:45;96280.89;;;2.50;80.47
24302;BME280;12421;49.732;20.078;2022-12-07T17:28:50;96281.27;;;2.51;80.12
24302;BME280;12421;49.732;20.078;2022-12-07T17:38:54;96277.53;;;2.61;80.09
24302;BME280;12421;49.732;20.078;2022-12-07T17:48:59;96286.21;;;2.62;79.37
24302;BME280;12421;49.732;20.078;2022-12-07T17:59:08;96288.44;;;2.61;79.42
24302;BME280;12421;49.732;20.078;2022-12-07T18:09:14;96293.73;;;2.52;79.59
24302;BME280;12421;49.732;20.078;2022-12-07T18:19:19;96297.99;;;2.45;79.66
24302;BME280;12421;49.732;20.078;2022-12-07T18:29:51;96308.23;;;2.30;79.26
24302;BME280;12421;49.732;20.078;2022-12-07T18:39:58;96307.55;;;2.03;79.77
24302;BME280;12421;49.732;20.078;2022-12-07T18:50:05;96302.46;;;1.82;80.40
24302;BME280;12421;49.732;20.078;2022-12-07T19:00:12;96302.15;;;1.72;80.94
24302;BME280;12421;49.732;20.078;2022-12-07T19:10:19;96302.14;;;1.57;81.42
24302;BME280;12421;49.732;20.078;2022-12-07T19:20:26;96305.29;;;1.48;81.42
24302;BME280;12421;49.732;20.078;2022-12-07T19:30:32;96303.37;;;1.23;81.20
24302;BME280;12421;49.732;20.078;2022-12-07T19:40:41;96309.08;;;1.01;81.72
24302;BME280;12421;49.732;20.078;2022-12-07T19:50:47;96317.90;;;0.81;81.80
24302;BME280;12421;49.732;20.078;2022-12-07T20:00:54;96315.88;;;0.83;82.73
24302;BME280;12421;49.732;20.078;2022-12-07T20:11:01;96321.56;;;0.93;83.17
24302;BME280;12421;49.732;20.078;2022-12-07T20:21:31;96316.36;;;1.13;83.39
24302;BME280;12421;49.732;20.078;2022-12-07T20:31:37;96321.06;;;1.26;83.16
24302;BME280;12421;49.732;20.078;2022-12-07T20:41:45;96312.48;;;1.30;83.05
24302;BME280;12421;49.732;20.078;2022-12-07T20:52:10;96313.73;;;1.33;82.11
24302;BME280;12421;49.732;20.078;2022-12-07T21:02:16;96329.48;;;1.45;81.85
24302;BME280;12421;49.732;20.078;2022-12-07T21:12:22;96330.93;;;1.52;81.47
24302;BME280;12421;49.732;20.078;2022-12-07T21:22:27;96336.32;;;1.65;81.52
24302;BME280;12421;49.732;20.078;2022-12-07T21:32:31;96342.20;;;1.78;80.59
24302;BME280;12421;49.732;20.078;2022-12-07T21:42:35;96341.94;;;1.84;79.52
24302;BME280;12421;49.732;20.078;2022-12-07T21:52:39;96332.58;;;1.83;79.13
24302;BME280;12421;49.732;20.078;2022-12-07T22:02:46;96332.62;;;1.85;78.21
24302;BME280;12421;49.732;20.078;2022-12-07T22:12:50;96330.50;;;1.96;78.10
24302;BME280;12421;49.732;20.078;2022-12-07T22:22:54;96336.95;;;2.00;77.65
24302;BME280;12421;49.732;20.078;2022-12-07T22:32:58;96336.90;;;1.96;76.95
24302;BME280;12421;49.732;20.078;2022-12-07T22:43:02;96340.34;;;1.94;76.78
24302;BME280;12421;49.732;20.078;2022-12-07T22:53:06;96340.60;;;2.00;76.93
24302;BME280;12421;49.732;20.078;2022-12-07T23:03:11;96335.55;;;1.99;76.05
24302;BME280;12421;49.732;20.078;2022-12-07T23:13:18;96333.95;;;1.83;75.91
24302;BME280;12421;49.732;20.078;2022-12-07T23:23:35;96339.83;;;1.68;76.05
24302;BME280;12421;49.732;20.078;2022-12-07T23:33:39;96332.58;;;1.45;76.18
24302;BME280;12421;49.732;20.078;2022-12-07T23:43:44;96332.02;;;1.21;76.38
24302;BME280;12421;49.732;20.078;2022-12-07T23:53:49;96328.27;;;1.01;76.75
